Terminal Aerodrome Forecast
Issued by NWS Albany, NY

Home | Current Version | Previous Version | Text Only | Print | Product List | Glossary On
Versions: 1 2 3 4 5 6 7 8 9 10 11 12 13 14 15
000
FTUS41 KALY 310500 RRA
TAFPOU
TAF
KPOU 310548Z 3106/0106 VRB02KT P6SM OVC035
      TEMPO 3106/3109 OVC030
     FM310900 19003KT P6SM OVC030
     FM311500 22007KT P6SM VCSH OVC040
     FM312000 22007KT 5SM -SHRA BR OVC030 PROB30 3121/0101 3SM TSRA
      OVC020CB
     FM010200 20003KT 5SM BR VCSH OVC035=

USA.gov is the U.S. government's official web portal to all federal, state and local government web resources and services.